Forside
METAR-TAF:

METAR-TAF

Lufthavne :

Johnson County Executive Airport

Olathe, Kansas, USA

Breddekreds: 38-51-00N, længdekreds: 094-44-21W, højde: 334 m

Aktuelle vejr

Denne rapport blev lavet for 1 time og 1 minutter siden, kl. 11:53 UTC
Vind 10 kt fra sydøst
Temperatur 2°C
Fugtighed 75%
Tryk 1009 hPa
Sigt: 16.1 km
Overskyet i en højde af 2000 ft

METAR: KOJC 221153Z AUTO 13010KT 10SM OVC020 02/M02 A2980 RMK AO2 SLP098 T00221017 10022 20006 53000

Tid: 06:54 (12:54 UTC)


TAF: fraværende

Vejrobservationer og prognoser fra mere end 4000 lufthavne (METAR og TAF).

De gule og røde prikker repræsenterer de meteorologiske stationer.

Flyt musen over at se navnet på stationen.

Så klik over at se vejr observationer og prognoser.

At skifte det kort: Klik på de grønne knapper med et sort kors for at zoome ind; på den grønne knap med en bindestreg for at zoome ud; eller på de grønne pile for tilstødende kort.


METAR-TAF: